Time;durP1;ratioP1;P1;durP2;ratioP2;P2;SDS_P1;SDS_P2;PMS_P1;PMS_P2;Temp;Humidity;BMP_temperature;BMP_pressure;BME280_temperature;BME280_humidity;BME280_pressure;Samples;Min_cycle;Max_cycle;Signal;HPM_P1;HPM_P2
2022/04/02 00:00:50;;;;;;;5.00;2.40;;;20.80;43.20;;;;;;5034595;28;20039;-74
2022/04/02 00:03:16;;;;;;;4.50;2.40;;;20.80;43.20;;;;;;5051731;28;20478;-74
2022/04/02 00:05:42;;;;;;;186.57;173.32;;;20.80;43.20;;;;;;5034357;28;20486;-73
2022/04/02 00:08:07;;;;;;;4.75;2.58;;;20.80;43.20;;;;;;5034249;28;20481;-75
2022/04/02 00:10:33;;;;;;;23.00;20.35;;;20.90;43.20;;;;;;5034564;28;20478;-75
2022/04/02 00:12:59;;;;;;;7.15;2.55;;;20.80;43.20;;;;;;5051752;28;20032;-75
2022/04/02 00:15:24;;;;;;;3.63;2.30;;;20.80;43.20;;;;;;5051847;28;20389;-75
2022/04/02 00:17:50;;;;;;;5.93;3.67;;;20.80;43.20;;;;;;5034007;28;20041;-75
2022/04/02 00:20:17;;;;;;;5.97;2.22;;;20.80;43.10;;;;;;5051908;28;20044;-74
2022/04/02 00:23:35;;;;;;;4.43;2.30;;;20.80;43.20;;;;;;5033609;28;20685;-74
2022/04/02 00:25:30;;;;;;;3.97;2.08;;;20.80;43.10;;;;;;5051552;28;20044;-75
2022/04/02 00:27:56;;;;;;;614.85;408.42;;;20.80;43.10;;;;;;5051602;28;20036;-75
2022/04/02 00:30:22;;;;;;;6.32;2.40;;;20.80;43.00;;;;;;5033972;28;20040;-75
2022/04/02 00:32:47;;;;;;;5.63;2.45;;;20.80;43.00;;;;;;5051430;28;20076;-75
2022/04/02 00:35:14;;;;;;;58.25;54.50;;;20.80;43.60;;;;;;5033512;28;20032;-75
2022/04/02 00:37:40;;;;;;;127.70;118.18;;;20.80;43.10;;;;;;5034058;28;20076;-75
2022/04/02 00:40:06;;;;;;;5.63;2.40;;;20.80;43.00;;;;;;5050445;28;20497;-75
2022/04/02 00:42:32;;;;;;;5.07;2.30;;;20.80;43.00;;;;;;5033349;28;20033;-75
2022/04/02 00:44:57;;;;;;;5.40;2.10;;;20.90;43.10;;;;;;5033600;28;20074;-76
2022/04/02 00:47:24;;;;;;;4.80;2.40;;;20.80;43.00;;;;;;5050074;28;20025;-75
2022/04/02 00:49:53;;;;;;;3.63;2.10;;;20.80;43.00;;;;;;5050162;28;20032;-75
2022/04/02 00:52:21;;;;;;;3.65;2.22;;;20.80;43.00;;;;;;5033806;28;20104;-75
2022/04/02 00:54:52;;;;;;;4.05;2.22;;;20.80;43.00;;;;;;5050147;28;20109;-75
2022/04/02 00:57:19;;;;;;;4.72;2.30;;;20.80;42.90;;;;;;5049637;28;20044;-75
2022/04/02 00:59:45;;;;;;;22.05;16.80;;;20.80;43.00;;;;;;5033490;28;20029;-76
2022/04/02 01:02:12;;;;;;;4.15;2.47;;;20.80;43.00;;;;;;5033218;28;20106;-76
2022/04/02 01:04:38;;;;;;;4.25;2.00;;;20.80;43.00;;;;;;5033314;28;20025;-75
2022/04/02 01:07:06;;;;;;;49.17;45.88;;;20.80;43.00;;;;;;5017160;28;20093;-74
2022/04/02 01:09:33;;;;;;;3.90;2.00;;;20.80;43.00;;;;;;5049840;28;20033;-73
2022/04/02 01:11:58;;;;;;;4.07;2.20;;;20.80;43.00;;;;;;5033085;28;20086;-73
2022/04/02 01:14:26;;;;;;;3.83;2.38;;;20.80;43.10;;;;;;5033259;28;20081;-73
2022/04/02 01:16:58;;;;;;;4.07;2.28;;;20.80;43.00;;;;;;5033277;28;20444;-73
2022/04/02 01:19:25;;;;;;;3.10;2.05;;;20.80;43.00;;;;;;5033043;28;20117;-73
2022/04/02 01:22:12;;;;;;;5.05;1.98;;;20.80;43.00;;;;;;5036058;28;20029;-73
2022/04/02 01:24:43;;;;;;;196.40;175.35;;;20.80;43.00;;;;;;5033282;28;20029;-74
2022/04/02 01:27:09;;;;;;;56.40;51.17;;;20.80;43.00;;;;;;5049673;28;20446;-74
2022/04/02 01:29:35;;;;;;;5.30;1.90;;;20.80;42.90;;;;;;5049659;28;20041;-74
2022/04/02 01:32:07;;;;;;;5.25;2.00;;;20.80;42.90;;;;;;5032904;28;20049;-73
2022/04/02 01:34:34;;;;;;;23.02;20.92;;;20.80;42.90;;;;;;5033128;28;20061;-74
2022/04/02 01:37:12;;;;;;;4.85;2.08;;;20.80;43.00;;;;;;5049859;28;20060;-74
2022/04/02 01:39:44;;;;;;;3.75;2.47;;;20.80;43.00;;;;;;5033022;28;20060;-74
2022/04/02 01:42:14;;;;;;;;;;;20.80;43.00;;;;;;5017236;28;20040;-74
2022/04/02 01:44:51;;;;;;;3.60;2.08;;;20.80;43.00;;;;;;5032989;28;20392;-74
2022/04/02 01:47:22;;;;;;;3.88;2.17;;;20.80;42.90;;;;;;5049855;28;20661;-74
2022/04/02 01:49:49;;;;;;;3.35;1.83;;;20.80;42.90;;;;;;5032962;28;20096;-74
2022/04/02 01:52:16;;;;;;;4.65;2.30;;;20.80;42.90;;;;;;5032711;28;20023;-74
2022/04/02 01:54:44;;;;;;;3.03;1.98;;;20.90;43.00;;;;;;5033219;28;20096;-73
2022/04/02 01:57:14;;;;;;;3.92;2.00;;;20.80;42.90;;;;;;5050682;28;20490;-74
2022/04/02 01:59:44;;;;;;;2.53;1.70;;;20.80;42.80;;;;;;5033187;28;20426;-74
2022/04/02 02:02:11;;;;;;;14.18;12.52;;;20.80;42.90;;;;;;5032552;28;20501;-74
2022/04/02 02:04:38;;;;;;;60.33;56.55;;;20.80;42.90;;;;;;5032919;28;20040;-74
2022/04/02 02:07:04;;;;;;;2.85;1.70;;;20.80;42.80;;;;;;5050521;28;20025;-74
2022/04/02 02:09:30;;;;;;;2.70;1.90;;;20.80;43.50;;;;;;5034865;28;20222;-73
2022/04/02 02:12:10;;;;;;;4.57;1.80;;;20.80;42.80;;;;;;5053990;28;20021;-74
2022/04/02 02:14:51;;;;;;;4.97;2.20;;;20.80;42.90;;;;;;5036603;28;20036;-74
2022/04/02 02:17:19;;;;;;;3.67;1.90;;;20.70;42.80;;;;;;5036063;28;20116;-74
2022/04/02 02:19:47;;;;;;;4.45;2.05;;;20.80;42.80;;;;;;5054280;28;20040;-74
2022/04/02 02:22:13;;;;;;;3.05;1.83;;;20.80;42.90;;;;;;5035921;28;20452;-74
2022/04/02 02:24:39;;;;;;;5.40;4.90;;;20.80;42.80;;;;;;5036325;28;20425;-74
2022/04/02 02:27:05;;;;;;;3.95;1.98;;;20.80;42.80;;;;;;5036295;28;20033;-74
2022/04/02 02:29:32;;;;;;;112.78;104.80;;;20.80;42.90;;;;;;5052751;28;20378;-74
2022/04/02 02:32:05;;;;;;;3.60;1.85;;;20.80;42.80;;;;;;5052392;28;20402;-74
2022/04/02 02:37:16;;;;;;;4.90;1.80;;;20.80;42.90;;;;;;5053847;28;20640;-74
2022/04/02 02:39:51;;;;;;;3.17;1.75;;;20.80;42.80;;;;;;5053947;28;20033;-74
2022/04/02 02:42:22;;;;;;;4.05;1.80;;;20.80;42.80;;;;;;5053485;28;20033;-74
2022/04/02 02:44:55;;;;;;;5.63;2.25;;;20.80;42.80;;;;;;5052477;28;20083;-74
2022/04/02 02:47:22;;;;;;;3.75;1.80;;;20.80;42.80;;;;;;5035738;28;20037;-74
2022/04/02 02:49:49;;;;;;;2.95;1.50;;;20.80;42.80;;;;;;5035974;28;20063;-74
2022/04/02 02:52:20;;;;;;;3.10;1.65;;;20.80;42.80;;;;;;5035448;28;20024;-74
2022/04/02 02:54:48;;;;;;;3.20;1.90;;;20.80;42.80;;;;;;5018925;28;20536;-74
2022/04/02 02:57:14;;;;;;;3.40;1.77;;;20.80;42.80;;;;;;5052254;28;20036;-74
2022/04/02 02:59:41;;;;;;;2.83;1.90;;;20.80;42.70;;;;;;5035784;28;20089;-74
2022/04/02 03:02:07;;;;;;;3.75;2.03;;;20.80;42.80;;;;;;5035251;28;20025;-74
2022/04/02 03:04:32;;;;;;;3.65;2.15;;;20.70;42.60;;;;;;5035554;28;20028;-74
2022/04/02 03:07:04;;;;;;;4.55;1.80;;;20.80;42.70;;;;;;5035445;28;20032;-74
2022/04/02 03:09:34;;;;;;;4.72;1.77;;;20.80;42.70;;;;;;5035593;28;20078;-74
2022/04/02 03:12:01;;;;;;;2.35;1.55;;;20.80;42.60;;;;;;5035043;28;20029;-74
2022/04/02 03:14:29;;;;;;;3.20;1.73;;;20.80;42.70;;;;;;5052001;28;20436;-74
2022/04/02 03:16:55;;;;;;;1.98;1.58;;;20.80;42.60;;;;;;5035151;28;20108;-74
2022/04/02 03:19:21;;;;;;;5.05;1.90;;;20.80;42.60;;;;;;5018727;28;20068;-74
2022/04/02 03:21:51;;;;;;;12.02;11.20;;;20.80;42.60;;;;;;5034878;28;20072;-73
2022/04/02 03:24:17;;;;;;;3.00;1.80;;;20.80;42.60;;;;;;5051575;28;20053;-74
2022/04/02 03:26:43;;;;;;;3.20;1.88;;;20.80;42.60;;;;;;5018749;28;20035;-73
2022/04/02 03:29:16;;;;;;;3.00;1.80;;;20.80;42.60;;;;;;5018572;28;20470;-74
2022/04/02 03:31:44;;;;;;;4.47;1.70;;;20.80;42.60;;;;;;5019155;28;20477;-74
2022/04/02 03:34:10;;;;;;;3.25;1.65;;;20.70;42.50;;;;;;5051137;28;20037;-74
2022/04/02 03:36:37;;;;;;;3.63;2.00;;;20.80;42.60;;;;;;5018495;28;20039;-74
2022/04/02 03:39:04;;;;;;;4.80;1.92;;;20.70;42.50;;;;;;5034825;28;20029;-74
2022/04/02 03:41:31;;;;;;;2.35;1.63;;;20.70;42.60;;;;;;5018638;28;20517;-73
2022/04/02 03:43:59;;;;;;;237.07;180.93;;;20.70;42.60;;;;;;5018045;28;20083;-73
2022/04/02 03:49:15;;;;;;;3.17;1.60;;;20.70;42.50;;;;;;5051282;28;20032;-74
2022/04/02 03:51:42;;;;;;;3.05;1.67;;;20.70;42.50;;;;;;5034770;28;20701;-74
2022/04/02 03:54:13;;;;;;;26.77;24.92;;;20.70;42.50;;;;;;5034456;28;20663;-74
2022/04/02 03:56:44;;;;;;;3.10;1.60;;;20.70;42.50;;;;;;5051219;28;20040;-74
2022/04/02 03:59:13;;;;;;;2.33;1.50;;;20.70;42.60;;;;;;5051275;28;20485;-74
2022/04/02 04:01:41;;;;;;;2.30;1.60;;;20.70;42.60;;;;;;5034436;28;20033;-74
2022/04/02 04:04:07;;;;;;;123.55;113.97;;;20.70;42.60;;;;;;5017853;28;20469;-74
2022/04/02 04:06:34;;;;;;;4.05;2.00;;;20.70;42.50;;;;;;5052096;28;20154;-73
2022/04/02 04:09:00;;;;;;;3.22;2.30;;;20.70;42.50;;;;;;5034448;28;20063;-73
2022/04/02 04:11:27;;;;;;;2.63;1.70;;;20.70;42.60;;;;;;5034410;28;20052;-73
2022/04/02 04:13:59;;;;;;;2.95;1.63;;;20.70;42.50;;;;;;5033905;28;20374;-73
2022/04/02 04:16:26;;;;;;;3.38;1.73;;;20.70;42.50;;;;;;5051080;28;20033;-73
2022/04/02 04:18:51;;;;;;;90.65;84.88;;;20.70;42.50;;;;;;5034205;28;20033;-73
2022/04/02 04:21:18;;;;;;;26.58;24.83;;;20.70;42.40;;;;;;5034011;28;20036;-73
2022/04/02 04:23:47;;;;;;;2.05;1.48;;;20.70;42.40;;;;;;5050193;28;20460;-73
2022/04/02 04:26:14;;;;;;;10.07;9.25;;;20.70;42.40;;;;;;5017743;28;20017;-73
2022/04/02 04:28:41;;;;;;;4.32;1.75;;;20.70;42.40;;;;;;5051636;28;20032;-73
2022/04/02 04:31:08;;;;;;;12.25;10.82;;;20.80;42.50;;;;;;5033374;28;20108;-73
2022/04/02 04:33:35;;;;;;;3.85;1.92;;;20.70;42.40;;;;;;5051401;28;20025;-73
2022/04/02 04:36:02;;;;;;;18.23;16.92;;;20.70;42.40;;;;;;5050725;28;20028;-73
2022/04/02 04:38:28;;;;;;;2.53;1.70;;;20.70;42.40;;;;;;5033957;28;20025;-73
2022/04/02 04:40:58;;;;;;;3.25;1.80;;;20.70;42.40;;;;;;5033757;28;20064;-73
2022/04/02 04:43:24;;;;;;;2.38;1.48;;;20.70;42.40;;;;;;5033471;28;20048;-73
2022/04/02 04:45:51;;;;;;;3.30;1.88;;;20.70;42.40;;;;;;5017412;28;20037;-73
2022/04/02 04:48:20;;;;;;;12.13;7.65;;;20.70;42.40;;;;;;5050253;28;20038;-73
2022/04/02 04:50:52;;;;;;;2.60;1.65;;;20.70;42.40;;;;;;5033680;28;20032;-73
2022/04/02 04:53:19;;;;;;;2.65;1.58;;;20.70;42.50;;;;;;5033496;28;20033;-72
2022/04/02 04:55:46;;;;;;;2.55;1.67;;;20.70;42.40;;;;;;5033297;28;20032;-72
2022/04/02 04:58:16;;;;;;;3.00;1.75;;;20.70;42.50;;;;;;5033674;28;20539;-73
2022/04/02 05:00:43;;;;;;;3.13;1.50;;;20.70;42.40;;;;;;5033463;28;20029;-72
2022/04/02 05:03:10;;;;;;;3.47;1.80;;;20.70;42.40;;;;;;5033301;28;20056;-73
2022/04/02 05:05:41;;;;;;;2.45;1.50;;;20.70;42.50;;;;;;5033322;28;20036;-72
2022/04/02 05:08:10;;;;;;;;;;;20.70;42.40;;;;;;5033787;28;20037;-72
2022/04/02 05:10:40;;;;;;;15.90;14.75;;;20.70;42.40;;;;;;5033408;28;19977;-73
2022/04/02 05:13:12;;;;;;;3.17;1.85;;;20.70;42.40;;;;;;5050856;28;20429;-73
2022/04/02 05:15:40;;;;;;;50.90;47.58;;;20.70;42.40;;;;;;5016535;28;20636;-72
2022/04/02 05:18:06;;;;;;;3.40;1.65;;;20.70;42.40;;;;;;5033298;28;20695;-73
2022/04/02 05:20:33;;;;;;;2.75;1.60;;;20.70;42.40;;;;;;5049668;28;20140;-73
2022/04/02 05:22:59;;;;;;;209.85;197.25;;;20.70;42.50;;;;;;5016317;28;20095;-73
2022/04/02 05:25:26;;;;;;;5.38;1.85;;;20.70;42.40;;;;;;5049452;28;20532;-72
2022/04/02 05:27:57;;;;;;;2.88;1.58;;;20.70;42.30;;;;;;5050997;28;20030;-72
2022/04/02 05:30:22;;;;;;;42.78;40.20;;;20.70;42.30;;;;;;5032844;28;20025;-72
2022/04/02 05:32:48;;;;;;;7.78;7.15;;;20.70;42.30;;;;;;5050535;28;20032;-72
2022/04/02 05:35:14;;;;;;;3.67;1.60;;;20.70;42.20;;;;;;5032880;28;20025;-72
2022/04/02 05:37:45;;;;;;;3.80;1.65;;;20.70;42.20;;;;;;5033078;28;20090;-72
2022/04/02 05:40:12;;;;;;;7.43;2.00;;;20.70;42.30;;;;;;5033066;28;20048;-72
2022/04/02 05:42:38;;;;;;;35.78;33.50;;;20.70;42.30;;;;;;5033461;28;20021;-72
2022/04/02 05:45:05;;;;;;;3.30;1.80;;;20.70;42.30;;;;;;5020200;28;20044;-73
2022/04/02 05:47:49;;;;;;;21.50;14.73;;;20.70;42.30;;;;;;5037056;28;20048;-72
2022/04/02 05:50:16;;;;;;;98.75;92.55;;;20.70;42.30;;;;;;5036733;28;20075;-73
2022/04/02 05:52:42;;;;;;;2.80;1.70;;;20.70;42.20;;;;;;5054210;28;20025;-72
2022/04/02 05:55:10;;;;;;;5.15;1.70;;;20.70;42.30;;;;;;5054545;28;20108;-72
2022/04/02 05:57:39;;;;;;;2.55;1.85;;;20.70;42.40;;;;;;5054712;28;20025;-72
2022/04/02 06:00:06;;;;;;;3.60;1.70;;;20.70;42.40;;;;;;5036847;28;20044;-72
2022/04/02 06:02:40;;;;;;;215.27;150.85;;;20.70;42.50;;;;;;5034238;28;20041;-72
2022/04/02 06:05:11;;;;;;;5.35;2.15;;;20.70;42.80;;;;;;5045065;28;20100;-73
2022/04/02 06:07:37;;;;;;;237.23;223.52;;;20.70;43.70;;;;;;5045341;28;20040;-73
2022/04/02 06:10:04;;;;;;;4.38;2.00;;;20.70;43.40;;;;;;5036767;28;20025;-72
2022/04/02 06:12:31;;;;;;;3.97;1.90;;;20.70;42.70;;;;;;5053899;28;20079;-72
2022/04/02 06:14:57;;;;;;;4.00;2.17;;;20.70;42.50;;;;;;5054249;28;20032;-72
2022/04/02 06:17:24;;;;;;;4.20;1.75;;;20.70;42.50;;;;;;5054140;28;20424;-72
2022/04/02 06:19:49;;;;;;;3.45;1.77;;;20.70;42.50;;;;;;5054183;28;20028;-72
2022/04/02 06:22:15;;;;;;;3.58;1.83;;;20.70;42.50;;;;;;5053730;28;20469;-72
2022/04/02 06:24:41;;;;;;;3.42;2.03;;;20.70;42.50;;;;;;5053107;28;20044;-72
2022/04/02 06:27:06;;;;;;;13.02;11.45;;;20.70;42.50;;;;;;5053998;28;20099;-71
2022/04/02 06:29:32;;;;;;;3.65;1.80;;;20.70;42.50;;;;;;5052765;28;20041;-72
2022/04/02 06:31:58;;;;;;;3.65;2.05;;;20.70;42.50;;;;;;5053698;28;20035;-72
2022/04/02 06:34:24;;;;;;;3.45;1.80;;;20.70;42.50;;;;;;5036198;28;20040;-72
2022/04/02 06:36:49;;;;;;;3.92;2.10;;;20.70;42.50;;;;;;5053844;28;20111;-72
2022/04/02 06:39:15;;;;;;;4.68;2.30;;;20.70;42.50;;;;;;5053868;28;20108;-71
2022/04/02 06:41:41;;;;;;;2.67;1.80;;;20.70;42.60;;;;;;5035993;28;20025;-72
2022/04/02 06:44:08;;;;;;;11.25;8.48;;;20.70;42.50;;;;;;5035940;28;20037;-72
2022/04/02 06:46:37;;;;;;;3.75;2.00;;;20.60;42.40;;;;;;5035810;28;20029;-72
2022/04/02 06:49:04;;;;;;;3.90;1.75;;;20.70;42.40;;;;;;5053801;28;20029;-72
2022/04/02 06:51:29;;;;;;;4.75;1.70;;;20.70;42.50;;;;;;5053600;28;20056;-72
2022/04/02 06:53:55;;;;;;;3.03;1.90;;;20.70;42.50;;;;;;5035325;28;20064;-72
2022/04/02 06:56:21;;;;;;;4.10;2.17;;;20.70;42.40;;;;;;5053084;28;20040;-72
2022/04/02 06:58:47;;;;;;;3.65;1.92;;;20.70;42.40;;;;;;5053488;28;20473;-72
2022/04/02 07:01:13;;;;;;;3.60;1.95;;;20.70;42.40;;;;;;5052243;28;20116;-72
2022/04/02 07:03:38;;;;;;;5.00;2.00;;;20.70;42.40;;;;;;5053078;28;20035;-72
2022/04/02 07:06:04;;;;;;;3.20;1.90;;;20.70;42.40;;;;;;5053531;28;20024;-72
2022/04/02 07:08:35;;;;;;;3.78;2.00;;;20.70;42.40;;;;;;5035505;28;20221;-73
2022/04/02 07:11:01;;;;;;;3.58;2.13;;;20.70;42.40;;;;;;5054019;28;20028;-72
2022/04/02 07:13:27;;;;;;;4.05;2.20;;;20.70;42.40;;;;;;5053907;28;20116;-73
2022/04/02 07:15:52;;;;;;;4.43;2.20;;;20.70;42.40;;;;;;5054121;28;20025;-73
2022/04/02 07:18:20;;;;;;;3.80;2.08;;;20.70;42.30;;;;;;5051978;28;20033;-73
2022/04/02 07:20:50;;;;;;;3.17;1.90;;;20.70;42.40;;;;;;5018907;28;20478;-72
2022/04/02 07:23:17;;;;;;;3.75;1.95;;;20.70;42.30;;;;;;5051926;28;20025;-73
2022/04/02 07:25:42;;;;;;;4.32;2.22;;;20.70;42.30;;;;;;5035701;28;20075;-72
2022/04/02 07:28:08;;;;;;;3.08;2.10;;;20.60;42.30;;;;;;5035114;28;20058;-72
2022/04/02 07:30:40;;;;;;;48.15;44.83;;;20.60;42.30;;;;;;5035423;28;20020;-72
2022/04/02 07:33:56;;;;;;;5.15;1.92;;;20.60;42.30;;;;;;5033446;28;20041;-72
2022/04/02 07:36:36;;;;;;;3.70;1.83;;;20.60;42.30;;;;;;5052655;28;20044;-72
2022/04/02 07:39:25;;;;;;;2.72;1.88;;;20.60;42.30;;;;;;5052876;28;20025;-72
2022/04/02 07:42:11;;;;;;;3.70;2.00;;;20.60;42.30;;;;;;5035259;28;20025;-72
2022/04/02 07:45:16;;;;;;;3.60;1.98;;;20.60;42.30;;;;;;5052671;28;20028;-73
2022/04/02 07:47:47;;;;;;;3.67;2.00;;;20.60;42.30;;;;;;5021228;28;20112;-73
2022/04/02 07:50:15;;;;;;;2.92;1.90;;;20.60;42.30;;;;;;5051652;28;20033;-72
2022/04/02 07:52:45;;;;;;;3.25;1.98;;;20.60;42.40;;;;;;5052116;28;20039;-72
2022/04/02 07:55:12;;;;;;;3.72;1.88;;;20.60;42.30;;;;;;5052540;28;20041;-73
2022/04/02 07:57:40;;;;;;;4.70;2.22;;;20.60;42.30;;;;;;5052574;28;20033;-72
2022/04/02 08:00:10;;;;;;;3.45;2.05;;;20.60;42.30;;;;;;5053399;28;20036;-73
2022/04/02 08:02:43;;;;;;;5.35;2.65;;;20.60;42.30;;;;;;5052175;28;20378;-73
2022/04/02 08:05:17;;;;;;;3.47;1.90;;;20.70;42.30;;;;;;5034260;28;20108;-72
2022/04/02 08:07:49;;;;;;;3.40;2.00;;;20.60;42.30;;;;;;5053226;28;20168;-73
2022/04/02 08:10:20;;;;;;;3.10;1.85;;;20.70;42.30;;;;;;5053290;28;20021;-73
2022/04/02 08:12:49;;;;;;;3.65;2.00;;;20.60;42.20;;;;;;5051035;28;20025;-73
2022/04/02 08:15:20;;;;;;;4.68;2.30;;;20.60;42.30;;;;;;5035546;28;20100;-73
2022/04/02 08:17:48;;;;;;;2.92;1.70;;;20.60;42.20;;;;;;5053056;28;20104;-72
2022/04/02 08:20:15;;;;;;;3.33;1.90;;;20.70;42.30;;;;;;5018258;28;20473;-73
2022/04/02 08:22:42;;;;;;;4.35;1.90;;;20.70;42.30;;;;;;5051778;28;20037;-73
2022/04/02 08:25:08;;;;;;;3.00;1.90;;;20.60;42.20;;;;;;5051742;28;20025;-72
2022/04/02 08:27:45;;;;;;;3.10;1.90;;;20.60;42.30;;;;;;5052374;28;20546;-73
2022/04/02 08:30:17;;;;;;;4.45;2.60;;;20.60;42.80;;;;;;5034245;28;20032;-73
2022/04/02 08:33:04;;;;;;;3.00;1.85;;;20.60;42.30;;;;;;5033816;28;20036;-73
2022/04/02 08:35:46;;;;;;;4.20;1.90;;;20.60;42.20;;;;;;5033814;28;20089;-72
2022/04/02 08:38:49;;;;;;;4.05;1.98;;;20.60;42.20;;;;;;5052060;28;20078;-72
2022/04/02 08:41:33;;;;;;;3.10;1.70;;;20.60;42.30;;;;;;5051725;28;20395;-72
2022/04/02 08:44:19;;;;;;;3.45;1.90;;;20.60;42.20;;;;;;5051147;28;20120;-72
2022/04/02 08:47:10;;;;;;;2.97;1.85;;;20.60;42.30;;;;;;5051266;28;20127;-72
2022/04/02 08:49:36;;;;;;;3.28;2.00;;;20.60;42.20;;;;;;5051376;28;20505;-72
2022/04/02 08:52:13;;;;;;;3.05;2.03;;;20.60;42.30;;;;;;5051307;28;20067;-71
2022/04/02 08:55:12;;;;;;;4.78;2.08;;;20.60;42.20;;;;;;5034381;28;20032;-72
2022/04/02 08:57:53;;;;;;;120.00;112.65;;;20.60;42.20;;;;;;5026084;28;20040;-71
2022/04/02 09:00:34;;;;;;;2.75;1.80;;;20.60;42.20;;;;;;5051661;28;20039;-72
2022/04/02 09:03:45;;;;;;;3.67;2.60;;;20.60;42.20;;;;;;5045256;28;20021;-72
2022/04/02 09:06:50;;;;;;;4.80;1.80;;;20.60;42.20;;;;;;5031028;28;20045;-70
2022/04/02 09:09:24;;;;;;;866.80;772.22;;;20.80;41.20;;;;;;5051342;28;20032;-70
2022/04/02 09:11:53;;;;;;;40.70;36.30;;;20.80;40.70;;;;;;5051692;28;20503;-70
2022/04/02 09:14:25;;;;;;;;;;;20.60;34.60;;;;;;5051781;28;20507;-70
2022/04/02 09:16:59;;;;;;;171.30;154.40;;;20.50;32.70;;;;;;5051110;28;19919;-70
2022/04/02 09:19:50;;;;;;;202.75;186.05;;;20.40;31.20;;;;;;5046909;28;20091;-73
2022/04/02 09:22:47;;;;;;;105.70;99.07;;;20.30;31.00;;;;;;5041863;28;20470;-72
2022/04/02 09:25:39;;;;;;;6.30;2.58;;;20.30;31.90;;;;;;5030967;28;20397;-73
2022/04/02 09:28:23;;;;;;;5.90;1.77;;;20.40;33.80;;;;;;5042132;28;20359;-72
2022/04/02 09:31:00;;;;;;;5.38;4.32;;;20.50;33.70;;;;;;5039729;28;20025;-73
2022/04/02 09:33:25;;;;;;;7.90;3.20;;;20.50;34.10;;;;;;5042970;28;20112;-72
2022/04/02 09:36:10;;;;;;;13.95;2.42;;;20.50;35.10;;;;;;5054386;28;20477;-72
2022/04/02 09:38:58;;;;;;;18.27;10.05;;;20.60;35.80;;;;;;5052086;28;20481;-72
2022/04/02 09:41:45;;;;;;;8.48;1.70;;;20.50;35.20;;;;;;5051489;28;20059;-72
2022/04/02 09:44:49;;;;;;;8.65;2.70;;;20.40;36.20;;;;;;5051023;28;20149;-73
2022/04/02 09:47:19;;;;;;;9.05;1.90;;;20.40;36.60;;;;;;5051330;28;20124;-73
2022/04/02 09:50:08;;;;;;;7.10;2.17;;;20.40;37.00;;;;;;5050106;28;20055;-73
2022/04/02 09:52:55;;;;;;;5.20;1.77;;;20.40;37.30;;;;;;5034188;28;20524;-73
2022/04/02 09:55:29;;;;;;;4.20;1.52;;;20.50;37.40;;;;;;5017333;28;20114;-73
2022/04/02 09:58:10;;;;;;;5.65;1.80;;;20.40;37.40;;;;;;5051335;28;20046;-73
2022/04/02 10:01:02;;;;;;;5.15;1.88;;;20.40;37.60;;;;;;5051408;28;20029;-73
2022/04/02 10:03:52;;;;;;;4.53;1.65;;;20.40;37.80;;;;;;5050090;28;20028;-73
2022/04/02 10:06:20;;;;;;;;;;;20.40;38.10;;;;;;5051412;28;20033;-73
2022/04/02 10:09:11;;;;;;;4.55;1.63;;;20.40;38.10;;;;;;5051098;28;19944;-73
2022/04/02 10:11:52;;;;;;;4.53;1.90;;;20.40;38.30;;;;;;5051979;28;20025;-73
2022/04/02 10:14:22;;;;;;;3.90;1.60;;;20.50;38.50;;;;;;5033851;28;20025;-73
2022/04/02 10:16:57;;;;;;;6.88;1.70;;;20.40;38.40;;;;;;5051629;28;20032;-73
2022/04/02 10:19:34;;;;;;;3.55;1.80;;;20.40;38.80;;;;;;5050146;28;20029;-73
2022/04/02 10:22:08;;;;;;;5.45;1.80;;;20.50;38.50;;;;;;5033303;28;20067;-73
2022/04/02 10:24:40;;;;;;;3.42;1.52;;;20.50;38.70;;;;;;5033438;28;20087;-73
2022/04/02 10:27:10;;;;;;;4.60;2.10;;;20.50;39.00;;;;;;5050775;28;20025;-73
2022/04/02 10:29:56;;;;;;;3.92;2.00;;;20.50;38.90;;;;;;5033832;28;20040;-73
2022/04/02 10:32:54;;;;;;;5.55;1.52;;;20.60;39.00;;;;;;5037442;28;20517;-73
2022/04/02 10:35:23;;;;;;;2.42;1.60;;;20.50;39.10;;;;;;5054523;28;20325;-73
2022/04/02 10:38:18;;;;;;;3.58;1.60;;;20.50;39.10;;;;;;5054714;28;20493;-73
2022/04/02 10:40:52;;;;;;;3.25;1.73;;;20.50;39.20;;;;;;5036686;28;20068;-73
2022/04/02 10:43:36;;;;;;;4.68;1.45;;;20.50;39.50;;;;;;5036495;28;20087;-70
2022/04/02 10:46:06;;;;;;;5.10;1.80;;;20.60;39.00;;;;;;5054597;28;20028;-71
2022/04/02 10:48:52;;;;;;;4.03;1.67;;;20.60;38.90;;;;;;5036331;28;20035;-72
2022/04/02 10:51:26;;;;;;;3.47;1.42;;;20.60;38.90;;;;;;5019841;28;20056;-72
2022/04/02 10:54:13;;;;;;;5.50;1.80;;;20.60;39.20;;;;;;5019359;28;20036;-71
2022/04/02 10:56:45;;;;;;;2.97;1.38;;;20.70;39.10;;;;;;5053941;28;20060;-72
2022/04/02 10:59:17;;;;;;;3.03;1.75;;;20.70;39.20;;;;;;5036047;28;20508;-72
2022/04/02 11:01:49;;;;;;;3.40;1.60;;;20.60;39.90;;;;;;5053862;28;20029;-71
2022/04/02 11:04:30;;;;;;;31.60;29.40;;;20.70;39.60;;;;;;5052219;28;20043;-71
2022/04/02 11:06:57;;;;;;;3.15;1.67;;;20.60;39.70;;;;;;5035765;28;20055;-72
2022/04/02 11:09:36;;;;;;;6.72;1.92;;;20.60;40.10;;;;;;5053713;28;20111;-72
2022/04/02 11:12:15;;;;;;;2.88;1.63;;;20.60;39.90;;;;;;5053295;28;20032;-72
2022/04/02 11:14:44;;;;;;;3.72;1.90;;;20.60;40.10;;;;;;5035994;28;20033;-72
2022/04/02 11:17:30;;;;;;;3.60;2.65;;;20.60;39.80;;;;;;5019156;28;20040;-71
2022/04/02 11:20:15;;;;;;;2.40;1.60;;;20.60;39.90;;;;;;5053290;28;20159;-71
2022/04/02 11:22:59;;;;;;;3.55;1.75;;;20.60;40.20;;;;;;5052761;28;20547;-71
2022/04/02 11:25:35;;;;;;;3.65;1.55;;;20.50;39.80;;;;;;5053006;28;20152;-71
2022/04/02 11:28:20;;;;;;;3.13;1.55;;;20.50;40.10;;;;;;5053026;28;20025;-71
2022/04/02 11:31:06;;;;;;;2.50;1.42;;;20.50;39.90;;;;;;5051682;28;20032;-71
2022/04/02 11:33:33;;;;;;;3.65;1.60;;;20.50;40.00;;;;;;5052372;28;20040;-71
2022/04/02 11:36:06;;;;;;;2.78;1.60;;;20.60;40.10;;;;;;5052543;28;20102;-71
2022/04/02 11:38:43;;;;;;;3.58;1.70;;;20.50;40.10;;;;;;5051416;28;20025;-71
2022/04/02 11:41:25;;;;;;;4.15;1.63;;;20.50;40.10;;;;;;5052596;28;20501;-71
2022/04/02 11:44:03;;;;;;;2.63;1.65;;;20.50;40.30;;;;;;5052112;28;20029;-72
2022/04/02 11:46:29;;;;;;;5.57;1.45;;;20.50;40.30;;;;;;5052459;28;20540;-71
2022/04/02 11:48:56;;;;;;;2.92;1.80;;;20.50;40.60;;;;;;5034854;28;20053;-72
2022/04/02 11:51:30;;;;;;;2.92;1.50;;;20.50;40.30;;;;;;5052261;28;20021;-70
2022/04/02 11:54:08;;;;;;;3.08;1.58;;;20.50;40.50;;;;;;5051222;28;20032;-72
2022/04/02 11:56:46;;;;;;;4.88;1.50;;;20.50;40.30;;;;;;5052206;28;20033;-72
2022/04/02 11:59:17;;;;;;;2.80;1.58;;;20.60;40.80;;;;;;5051237;28;20024;-71
2022/04/02 12:01:49;;;;;;;2.45;1.48;;;20.50;40.70;;;;;;5034561;28;20064;-71
2022/04/02 12:04:25;;;;;;;4.43;1.75;;;20.50;40.60;;;;;;5052065;28;20025;-72
2022/04/02 12:06:54;;;;;;;3.13;1.60;;;20.50;40.60;;;;;;5052123;28;20053;-72
2022/04/02 12:09:25;;;;;;;3.42;1.65;;;20.50;40.60;;;;;;5052224;28;20074;-71
2022/04/02 12:11:59;;;;;;;2.80;1.63;;;20.50;40.80;;;;;;5050829;28;20256;-72
2022/04/02 12:14:34;;;;;;;3.72;1.90;;;20.50;40.70;;;;;;5051986;28;20059;-71
2022/04/02 12:17:09;;;;;;;5.18;1.48;;;20.50;40.90;;;;;;5051992;28;20029;-72
2022/04/02 12:19:44;;;;;;;2.85;1.55;;;20.50;40.80;;;;;;5051965;28;20044;-72
2022/04/02 12:22:35;;;;;;;5.22;1.77;;;20.50;40.80;;;;;;5051782;28;20043;-72
2022/04/02 12:25:06;;;;;;;2.15;1.48;;;20.50;40.70;;;;;;5051800;28;20033;-72
2022/04/02 12:27:32;;;;;;;;;;;20.50;41.20;;;;;;5052148;28;20025;-72
2022/04/02 12:30:00;;;;;;;2.75;1.73;;;20.50;41.20;;;;;;5051834;28;20212;-72
2022/04/02 12:32:40;;;;;;;3.72;1.70;;;20.50;41.00;;;;;;5051564;28;20032;-72
2022/04/02 12:35:08;;;;;;;3.13;1.40;;;20.50;41.00;;;;;;5051923;28;20063;-72
2022/04/02 12:37:44;;;;;;;3.83;1.73;;;20.50;41.00;;;;;;5033763;28;20028;-72
2022/04/02 12:40:40;;;;;;;2.65;1.75;;;20.50;41.10;;;;;;5051584;28;20111;-72
2022/04/02 12:43:10;;;;;;;3.10;1.60;;;20.50;41.40;;;;;;5046101;28;20104;-72
2022/04/02 12:45:37;;;;;;;1.88;1.60;;;20.50;41.00;;;;;;5033620;28;20116;-72
2022/04/02 12:48:03;;;;;;;2.53;1.63;;;20.50;41.20;;;;;;5051443;28;20021;-72
2022/04/02 12:50:35;;;;;;;2.72;1.50;;;20.50;41.20;;;;;;5033739;28;20080;-71
2022/04/02 12:53:01;;;;;;;2.15;1.50;;;20.50;41.20;;;;;;5050620;28;20448;-72
2022/04/02 12:55:29;;;;;;;2.85;1.60;;;20.50;41.30;;;;;;5051346;28;20079;-71
2022/04/02 12:58:07;;;;;;;4.23;2.93;;;20.50;41.20;;;;;;5051480;28;20021;-72
2022/04/02 13:00:37;;;;;;;3.30;1.70;;;20.50;41.30;;;;;;5033760;28;20032;-71
2022/04/02 13:03:05;;;;;;;4.72;1.80;;;20.60;41.30;;;;;;5033074;28;20064;-71
2022/04/02 13:05:49;;;;;;;4.45;1.60;;;20.50;41.20;;;;;;5049813;28;20375;-72
2022/04/02 13:08:17;;;;;;;2.92;1.58;;;20.50;41.10;;;;;;5051174;28;20029;-72
2022/04/02 13:10:46;;;;;;;2.88;1.63;;;20.60;41.20;;;;;;5051084;28;20025;-72
2022/04/02 13:13:14;;;;;;;2.63;1.55;;;20.50;41.10;;;;;;5050760;28;20021;-72
2022/04/02 13:15:50;;;;;;;3.08;1.70;;;20.50;41.30;;;;;;5033535;28;20160;-72